Time;durP1;ratioP1;P1;durP2;ratioP2;P2;SDS_P1;SDS_P2;PMS_P1;PMS_P2;Temp;Humidity;BMP_temperature;BMP_pressure;BME280_temperature;BME280_humidity;BME280_pressure;Samples;Min_cycle;Max_cycle;Signal;HPM_P1;HPM_P2
2022/08/29 00:01:17;;;;;;;6.43;2.40;;;;;;;26.84;48.85;98796.66;6101293;23;20155;-88
2022/08/29 00:03:43;;;;;;;4.90;3.03;;;;;;;26.84;50.00;98791.28;6126801;23;20148;-88
2022/08/29 00:06:09;;;;;;;7.87;2.90;;;;;;;26.80;50.33;98794.53;6126833;23;20148;-88
2022/08/29 00:08:35;;;;;;;5.60;2.80;;;;;;;26.77;49.86;98795.75;6127065;23;20190;-88
2022/08/29 00:11:00;;;;;;;4.67;3.07;;;;;;;26.77;49.36;98798.44;6127441;23;20227;-88
2022/08/29 00:13:26;;;;;;;5.53;2.90;;;;;;;26.83;49.50;98794.97;6126754;23;20515;-88
2022/08/29 00:15:52;;;;;;;7.43;2.70;;;;;;;26.79;48.31;98798.25;6126760;23;20587;-88
2022/08/29 00:18:19;;;;;;;8.70;2.72;;;;;;;26.69;48.26;98797.69;6126688;23;20226;-87
2022/08/29 00:20:45;;;;;;;6.55;2.30;;;;;;;26.74;47.38;98793.41;6126685;23;20159;-88
2022/08/29 00:23:11;;;;;;;9.43;3.13;;;;;;;26.62;47.73;98792.28;6126836;23;20591;-87
2022/08/29 00:25:37;;;;;;;6.35;3.53;;;;;;;26.52;47.68;98807.03;6126957;23;20151;-88
2022/08/29 00:28:03;;;;;;;5.67;2.90;;;;;;;26.47;48.12;98810.28;6126547;23;20635;-87
2022/08/29 00:30:29;;;;;;;6.18;2.85;;;;;;;26.48;47.69;98817.34;6126596;23;20568;-87
2022/08/29 00:32:54;;;;;;;9.37;2.93;;;;;;;26.37;47.75;98811.59;6126894;23;20215;-88
2022/08/29 00:35:31;;;;;;;6.50;2.30;;;;;;;26.38;48.65;98802.53;6127273;23;20560;-88
2022/08/29 00:37:57;;;;;;;8.30;2.85;;;;;;;26.44;47.81;98802.59;6126903;23;20163;-88
2022/08/29 00:40:28;;;;;;;6.87;2.90;;;;;;;26.48;47.13;98806.59;6126520;23;20147;-88
2022/08/29 00:42:54;;;;;;;7.20;2.57;;;;;;;26.38;47.54;98794.47;6101062;23;20151;-88
2022/08/29 00:45:21;;;;;;;7.90;2.97;;;;;;;26.37;47.79;98798.16;6126499;23;20308;-88
2022/08/29 00:47:53;;;;;;;6.60;2.63;;;;;;;26.34;47.74;98793.16;6126327;23;20184;-87
2022/08/29 00:50:32;;;;;;;6.07;2.90;;;;;;;26.20;47.99;98794.88;6127147;23;20625;-88
2022/08/29 00:53:00;;;;;;;4.60;2.60;;;;;;;26.14;48.20;98790.25;6126445;23;20163;-88
2022/08/29 00:55:30;;;;;;;6.07;2.60;;;;;;;26.19;47.95;98790.50;6126185;23;20176;-88
2022/08/29 00:58:00;;;;;;;4.93;2.73;;;;;;;26.13;48.39;98785.88;6126712;23;20143;-87
2022/08/29 01:00:26;;;;;;;5.00;2.57;;;;;;;26.03;48.32;98786.16;6126453;23;20158;-87
2022/08/29 01:02:53;;;;;;;4.63;2.43;;;;;;;25.96;48.49;98784.41;6126388;23;20202;-87
2022/08/29 01:05:18;;;;;;;9.10;2.17;;;;;;;25.93;49.01;98799.03;6126699;23;20159;-87
2022/08/29 01:07:45;;;;;;;5.20;2.30;;;;;;;25.87;48.59;98799.78;6126661;23;20638;-88
2022/08/29 01:12:14;;;;;;;7.70;2.77;;;;;;;25.85;48.20;98798.28;6126325;23;20183;-88
2022/08/29 01:12:58;;;;;;;4.10;2.07;;;;;;;25.90;47.87;98795.88;6126158;23;20136;-88
2022/08/29 01:15:25;;;;;;;8.57;3.20;;;;;;;25.97;47.36;98789.56;6126288;23;20580;-88
2022/08/29 01:17:53;;;;;;;7.80;2.90;;;;;;;25.94;47.76;98789.13;6126633;23;20210;-89
2022/08/29 01:20:28;;;;;;;6.27;2.60;;;;;;;26.03;47.84;98788.84;6126209;23;20207;-89
2022/08/29 01:22:59;;;;;;;9.57;2.43;;;;;;;26.05;48.32;98786.78;6127032;23;20167;-88
2022/08/29 01:25:30;;;;;;;4.80;2.70;;;;;;;26.05;48.11;98788.63;6126342;23;20147;-88
2022/08/29 01:28:09;;;;;;;6.37;2.40;;;;;;;25.90;48.71;98787.81;6100743;23;20203;-88
2022/08/29 01:30:35;;;;;;;10.73;2.40;;;;;;;25.80;49.22;98790.78;6126934;23;20175;-88
2022/08/29 01:33:00;;;;;;;7.07;2.77;;;;;;;25.78;49.35;98795.53;6126874;23;20158;-89
2022/08/29 01:35:27;;;;;;;6.07;2.67;;;;;;;25.90;48.94;98787.81;6126540;23;20156;-88
2022/08/29 01:37:52;;;;;;;5.90;2.80;;;;;;;25.98;48.65;98788.56;6126153;23;20626;-88
2022/08/29 01:40:18;;;;;;;4.83;2.80;;;;;;;25.97;48.81;98799.50;6126186;23;20147;-88
2022/08/29 01:42:45;;;;;;;8.93;3.03;;;;;;;25.91;48.89;98789.50;6100617;23;20208;-88
2022/08/29 01:45:11;;;;;;;6.93;2.50;;;;;;;25.79;49.35;98790.97;6126147;23;20572;-88
2022/08/29 01:47:38;;;;;;;7.90;2.80;;;;;;;25.70;49.45;98789.41;6126072;23;20176;-88
2022/08/29 01:50:14;;;;;;;4.73;2.77;;;;;;;25.63;49.25;98787.44;6126487;23;20240;-88
2022/08/29 01:52:41;;;;;;;6.00;3.13;;;;;;;25.66;49.62;98791.63;6126452;23;20221;-88
2022/08/29 01:55:07;;;;;;;6.63;2.73;;;;;;;25.52;49.63;98787.09;6126110;23;20162;-88
2022/08/29 01:57:32;;;;;;;4.37;2.67;;;;;;;25.44;49.90;98790.66;6126118;23;20144;-88
2022/08/29 02:00:00;;;;;;;4.67;2.40;;;;;;;25.41;49.46;98796.38;6126140;23;20162;-88
2022/08/29 02:02:28;;;;;;;4.77;2.60;;;;;;;25.35;49.64;98793.59;6126085;23;20564;-88
2022/08/29 02:04:57;;;;;;;3.27;2.03;;;;;;;25.25;49.98;98791.16;6126018;23;20641;-88
2022/08/29 02:07:24;;;;;;;4.93;2.53;;;;;;;25.16;50.08;98802.16;6126605;23;20179;-87
2022/08/29 02:09:50;;;;;;;8.63;2.97;;;;;;;25.13;50.84;98797.97;6128260;23;20151;-88
2022/08/29 02:12:16;;;;;;;7.03;2.50;;;;;;;25.20;50.62;98795.41;6127875;23;20202;-87
2022/08/29 02:14:43;;;;;;;7.93;2.93;;;;;;;25.21;50.90;98794.41;6128200;23;20215;-88
2022/08/29 02:17:08;;;;;;;5.90;2.63;;;;;;;25.30;50.89;98793.31;6102332;23;20515;-88
2022/08/29 02:19:35;;;;;;;4.40;2.87;;;;;;;25.30;50.19;98795.97;6127760;23;20158;-88
2022/08/29 02:22:01;;;;;;;7.60;3.00;;;;;;;25.16;50.42;98797.63;6127791;23;20152;-88
2022/08/29 02:24:27;;;;;;;8.30;2.50;;;;;;;25.16;50.43;98788.75;6127814;23;20156;-88
2022/08/29 02:26:54;;;;;;;8.00;3.03;;;;;;;25.18;50.66;98800.13;6102110;23;20207;-88
2022/08/29 02:29:20;;;;;;;13.33;3.63;;;;;;;25.16;50.60;98804.84;6102145;23;20164;-88
2022/08/29 02:31:45;;;;;;;9.40;2.93;;;;;;;25.10;50.79;98798.34;6128358;23;20159;-88
2022/08/29 02:34:11;;;;;;;6.10;2.50;;;;;;;25.14;50.42;98801.50;6128041;23;20152;-88
2022/08/29 02:36:37;;;;;;;9.60;2.93;;;;;;;25.11;50.90;98799.16;6128043;23;20197;-88
2022/08/29 02:39:03;;;;;;;3.97;2.53;;;;;;;25.05;50.96;98798.06;6128339;23;20152;-88
2022/08/29 02:41:30;;;;;;;8.60;3.20;;;;;;;25.02;51.45;98801.94;6127620;23;20159;-88
2022/08/29 02:43:57;;;;;;;7.13;2.80;;;;;;;24.98;51.83;98803.31;6127634;23;20148;-87
2022/08/29 02:46:22;;;;;;;7.30;2.80;;;;;;;25.02;50.80;98799.25;6102017;23;20160;-88
2022/08/29 02:48:48;;;;;;;7.80;3.03;;;;;;;24.92;51.66;98805.88;6127527;23;20207;-88
2022/08/29 02:51:29;;;;;;;6.97;3.03;;;;;;;24.88;51.12;98813.44;6127529;23;20152;-87
2022/08/29 02:53:55;;;;;;;6.00;2.77;;;;;;;24.85;51.11;98816.47;6127526;23;20205;-88
2022/08/29 02:56:20;;;;;;;8.17;2.97;;;;;;;24.79;51.51;98819.84;6127525;23;20151;-88
2022/08/29 02:58:48;;;;;;;5.93;2.53;;;;;;;24.80;51.18;98818.03;6127533;23;20582;-88
2022/08/29 03:01:14;;;;;;;5.87;2.90;;;;;;;24.82;50.94;98824.88;6101882;23;20225;-88
2022/08/29 03:03:40;;;;;;;8.57;3.20;;;;;;;24.85;51.25;98826.34;6127469;23;20238;-88
2022/08/29 03:06:06;;;;;;;6.00;3.30;;;;;;;24.78;51.76;98823.56;6127446;23;20148;-88
2022/08/29 03:08:32;;;;;;;10.03;3.03;;;;;;;24.79;51.13;98821.72;6127348;23;20190;-87
2022/08/29 03:10:57;;;;;;;4.13;2.53;;;;;;;24.80;51.26;98820.69;6128011;23;20170;-87
2022/08/29 03:13:23;;;;;;;6.50;3.30;;;;;;;24.78;51.27;98831.63;6127408;23;20156;-87
2022/08/29 03:15:49;;;;;;;8.03;3.50;;;;;;;24.73;51.34;98828.59;6101724;23;20166;-88
2022/08/29 03:18:15;;;;;;;4.50;2.70;;;;;;;24.68;51.78;98827.47;6127217;23;20531;-88
2022/08/29 03:20:41;;;;;;;6.17;2.60;;;;;;;24.71;51.81;98829.78;6101551;23;20163;-87
2022/08/29 03:23:07;;;;;;;4.87;2.47;;;;;;;24.57;51.89;98842.09;6127956;23;20156;-88
2022/08/29 03:25:33;;;;;;;5.77;2.67;;;;;;;24.57;51.10;98835.91;6127244;23;20599;-88
2022/08/29 03:27:59;;;;;;;5.80;3.13;;;;;;;24.53;51.90;98838.09;6127148;23;20176;-88
2022/08/29 03:30:26;;;;;;;6.70;2.57;;;;;;;24.46;52.07;98842.47;6127233;23;20159;-88
2022/08/29 03:32:52;;;;;;;7.47;3.13;;;;;;;24.48;51.83;98848.50;6127873;23;20182;-88
2022/08/29 03:35:18;;;;;;;8.90;3.00;;;;;;;24.40;51.98;98840.50;6101597;23;20172;-87
2022/08/29 03:37:44;;;;;;;6.03;2.70;;;;;;;24.46;52.26;98842.47;6127146;23;20168;-87
2022/08/29 03:40:12;;;;;;;7.70;3.07;;;;;;;24.54;51.99;98844.28;6127157;23;20227;-88
2022/08/29 03:42:37;;;;;;;8.10;2.63;;;;;;;24.49;52.14;98847.50;6127390;23;20218;-88
2022/08/29 03:45:06;;;;;;;6.87;3.17;;;;;;;24.32;52.91;98845.88;6127767;23;20580;-88
2022/08/29 03:47:32;;;;;;;6.40;2.43;;;;;;;24.30;53.14;98840.72;6127655;23;20176;-88
2022/08/29 03:49:58;;;;;;;5.53;3.30;;;;;;;24.39;52.88;98842.38;6127054;23;20158;-88
2022/08/29 03:52:23;;;;;;;5.03;2.57;;;;;;;24.43;52.70;98843.69;6101258;23;20497;-87
2022/08/29 03:54:49;;;;;;;6.40;3.40;;;;;;;24.48;53.08;98843.13;6127390;23;20163;-88
2022/08/29 03:57:14;;;;;;;11.27;3.50;;;;;;;24.40;53.01;98853.91;6126607;23;20144;-88
2022/08/29 03:59:41;;;;;;;9.17;3.00;;;;;;;24.29;53.00;98844.41;6125854;23;20148;-88
2022/08/29 04:02:07;;;;;;;4.67;2.80;;;;;;;24.22;52.93;98851.47;6125948;23;20156;-88
2022/08/29 04:07:17;;;;;;;6.00;2.23;;;;;;;24.21;53.19;98862.38;6126246;23;20199;-88
2022/08/29 04:09:42;;;;;;;4.53;2.50;;;;;;;24.27;53.79;98865.19;6101011;23;20487;-87
2022/08/29 04:12:10;;;;;;;7.33;2.77;;;;;;;24.32;53.87;98867.31;6126805;23;20159;-88
2022/08/29 04:14:39;;;;;;;9.23;3.17;;;;;;;24.35;54.00;98873.19;6126814;23;20226;-88
2022/08/29 04:17:04;;;;;;;10.40;3.33;;;;;;;24.30;54.50;98869.34;6126731;23;20147;-88
2022/08/29 04:19:30;;;;;;;9.70;4.10;;;;;;;24.26;55.02;98868.03;6126709;23;20222;-87
2022/08/29 04:21:56;;;;;;;6.00;3.13;;;;;;;24.23;54.43;98868.38;6127377;23;20147;-88
2022/08/29 04:24:22;;;;;;;5.23;3.00;;;;;;;24.25;53.44;98866.34;6101101;23;20565;-87
2022/08/29 04:26:48;;;;;;;5.37;3.10;;;;;;;24.37;52.51;98865.00;6126581;23;20158;-88
2022/08/29 04:29:13;;;;;;;8.93;2.90;;;;;;;24.40;52.04;98873.50;6126683;23;20148;-88
2022/08/29 04:31:41;;;;;;;6.10;2.83;;;;;;;24.42;52.45;98866.09;6126210;23;20162;-88
2022/08/29 04:34:08;;;;;;;6.90;3.07;;;;;;;24.43;52.93;98869.63;6125906;23;20459;-88
2022/08/29 04:36:35;;;;;;;10.27;3.30;;;;;;;24.53;52.17;98864.88;6101095;23;20163;-87
2022/08/29 04:39:01;;;;;;;10.17;4.60;;;;;;;24.58;51.06;98867.88;6101004;23;20162;-88
2022/08/29 04:41:27;;;;;;;8.03;3.50;;;;;;;24.65;50.42;98876.06;6101057;23;20164;-88
2022/08/29 04:43:52;;;;;;;6.57;2.90;;;;;;;24.65;50.49;98870.69;6125526;23;20510;-88
2022/08/29 04:46:18;;;;;;;14.30;3.20;;;;;;;24.73;50.49;98871.50;6126540;23;20569;-88
2022/08/29 04:48:44;;;;;;;6.83;3.17;;;;;;;24.82;49.92;98869.59;6127099;23;20180;-87
2022/08/29 04:51:09;;;;;;;7.00;3.20;;;;;;;24.87;49.47;98868.06;6126514;23;20174;-88
2022/08/29 04:53:35;;;;;;;4.83;2.47;;;;;;;24.92;49.26;98872.91;6126330;23;20176;-88
2022/08/29 04:56:05;;;;;;;7.03;3.00;;;;;;;24.97;nan;98874.03;6100887;23;20638;-87
2022/08/29 04:58:33;;;;;;;9.73;2.93;;;;;;;25.05;48.84;98871.28;6126377;23;20147;-88
2022/08/29 05:00:58;;;;;;;9.33;2.43;;;;;;;25.09;48.67;98873.63;6126765;23;20154;-87
2022/08/29 05:03:24;;;;;;;9.60;2.83;;;;;;;25.05;49.77;98873.16;6126415;23;20223;-87
2022/08/29 05:05:58;;;;;;;5.77;2.67;;;;;;;25.04;49.92;98876.84;6126665;23;20539;-87
2022/08/29 05:08:24;;;;;;;7.73;3.30;;;;;;;;;;6126279;23;20175;-87
2022/08/29 05:10:50;;;;;;;9.80;3.07;;;;;;;25.07;49.80;98876.50;6126343;23;20159;-87
2022/08/29 05:13:15;;;;;;;4.33;2.67;;;;;;;25.24;50.07;98875.34;6126715;23;20151;-89
2022/08/29 05:15:41;;;;;;;6.60;2.80;;;;;;;25.41;50.50;98870.69;6100778;23;20151;-88
2022/08/29 05:18:06;;;;;;;6.00;3.00;;;;;;;25.59;50.15;98879.28;6126690;23;20563;-88
2022/08/29 05:20:32;;;;;;;9.57;2.97;;;;;;;25.70;50.79;98883.38;6126627;23;20152;-88
2022/08/29 05:22:58;;;;;;;6.37;2.83;;;;;;;25.80;51.26;98887.47;6126651;23;20155;-87
2022/08/29 05:25:24;;;;;;;7.53;3.10;;;;;;;25.92;51.28;98879.78;6126304;23;20225;-88
2022/08/29 05:27:50;;;;;;;8.30;3.47;;;;;;;25.99;51.66;98886.94;6126199;23;20230;-88
2022/08/29 05:30:16;;;;;;;11.13;3.50;;;;;;;26.14;51.30;98889.66;6100803;23;20451;-88
2022/08/29 05:32:42;;;;;;;7.37;3.57;;;;;;;26.23;51.89;98884.00;6100751;23;20183;-87
2022/08/29 05:35:09;;;;;;;8.30;3.30;;;;;;;26.37;52.33;98890.38;6126598;23;20234;-88
2022/08/29 05:37:34;;;;;;;7.17;3.60;;;;;;;26.52;52.27;98893.88;6126565;23;20147;-88
2022/08/29 05:40:00;;;;;;;9.07;3.10;;;;;;;26.62;52.52;98888.22;6126848;23;20218;-88
2022/08/29 05:42:26;;;;;;;9.10;4.03;;;;;;;26.75;51.87;98888.38;6127685;23;20154;-88
2022/08/29 05:44:52;;;;;;;6.17;3.27;;;;;;;26.75;51.31;98889.22;6128197;23;20576;-88
2022/08/29 05:47:19;;;;;;;5.33;3.23;;;;;;;26.85;50.92;98888.94;6128481;23;20176;-88
2022/08/29 05:49:46;;;;;;;8.90;3.60;;;;;;;26.92;50.89;98894.38;6128247;23;20152;-89
2022/08/29 05:52:14;;;;;;;9.17;3.57;;;;;;;26.85;50.42;98891.63;6128302;23;20167;-88
2022/08/29 05:54:41;;;;;;;10.07;3.33;;;;;;;26.97;50.15;98891.94;6128476;23;20215;-88
2022/08/29 05:57:08;;;;;;;7.93;3.15;;;;;;;27.11;50.01;98894.59;6128045;23;20541;-87
2022/08/29 05:59:35;;;;;;;9.83;3.90;;;;;;;27.22;50.26;98896.78;6128052;23;20517;-87
2022/08/29 06:02:00;;;;;;;13.57;3.67;;;;;;;27.18;50.17;98906.25;6128411;23;20155;-87
2022/08/29 06:04:26;;;;;;;9.63;3.50;;;;;;;27.36;50.22;98898.56;6128032;23;20483;-88
2022/08/29 06:06:52;;;;;;;6.50;3.10;;;;;;;27.48;50.26;98900.78;6127904;23;20152;-88
2022/08/29 06:09:18;;;;;;;8.87;3.90;;;;;;;27.53;50.05;98899.19;6128347;23;20230;-89
2022/08/29 06:11:49;;;;;;;10.68;4.13;;;;;;;27.72;49.71;98903.91;6127905;23;20523;-88
2022/08/29 06:14:15;;;;;;;12.35;3.53;;;;;;;27.81;49.68;98899.19;6128195;23;20148;-90
2022/08/29 06:16:41;;;;;;;10.13;3.60;;;;;;;27.77;49.07;98900.63;6127866;23;20148;-88
2022/08/29 06:19:07;;;;;;;10.48;3.90;;;;;;;27.86;49.66;98902.94;6102257;23;20544;-88
2022/08/29 06:21:33;;;;;;;9.90;3.72;;;;;;;27.85;48.97;98897.78;6127854;23;20179;-88
2022/08/29 06:23:59;;;;;;;7.03;3.28;;;;;;;27.77;49.31;98906.00;6128137;23;20220;-88
2022/08/29 06:26:24;;;;;;;7.32;3.67;;;;;;;27.79;50.05;98909.31;6127817;23;20152;-89
2022/08/29 06:28:50;;;;;;;12.00;4.25;;;;;;;28.00;49.44;98903.88;6128324;23;20179;-88
2022/08/29 06:31:23;;;;;;;11.13;3.88;;;;;;;28.17;49.19;98905.25;6128560;23;20152;-87
2022/08/29 06:33:54;;;;;;;9.90;4.05;;;;;;;28.23;49.38;98903.63;6128444;23;20580;-87
2022/08/29 06:36:20;;;;;;;6.65;3.65;;;;;;;28.18;49.04;98903.41;6128147;23;20163;-88
2022/08/29 06:38:46;;;;;;;9.55;4.47;;;;;;;28.42;49.29;98892.13;6128076;23;20638;-88
2022/08/29 06:41:15;;;;;;;12.23;4.43;;;;;;;28.68;48.78;98900.38;6128036;23;20175;-88
2022/08/29 06:43:42;;;;;;;9.65;3.88;;;;;;;28.84;46.81;98894.63;6102351;23;20251;-89
2022/08/29 06:46:20;;;;;;;8.40;3.45;;;;;;;29.36;47.14;98895.81;6128657;23;20183;-89
2022/08/29 06:48:48;;;;;;;5.97;3.85;;;;;;;29.95;45.51;98895.84;6102134;23;20608;-89
2022/08/29 06:51:41;;;;;;;8.15;2.58;;;;;;;30.32;44.19;98887.03;6102870;23;20582;-90
2022/08/29 06:54:19;;;;;;;10.90;3.92;;;;;;;30.42;43.09;98895.56;6127052;23;20205;-90
2022/08/29 06:56:45;;;;;;;7.43;3.40;;;;;;;30.36;42.76;98899.94;6102161;23;20488;-89
2022/08/29 06:59:11;;;;;;;6.63;3.08;;;;;;;30.66;42.92;98902.94;6127547;23;20159;-89
2022/08/29 07:01:43;;;;;;;12.23;3.88;;;;;;;30.97;42.18;98900.34;6101904;23;20240;-90
2022/08/29 07:04:28;;;;;;;10.65;3.58;;;;;;;31.19;42.35;98910.81;6102303;23;20295;-89
2022/08/29 07:06:57;;;;;;;8.82;3.72;;;;;;;31.29;41.09;98913.91;6101917;23;20175;-90
2022/08/29 07:09:28;;;;;;;7.72;3.22;;;;;;;31.53;41.61;98910.41;6127851;23;20148;-89
2022/08/29 07:11:53;;;;;;;8.55;3.78;;;;;;;31.86;41.23;98912.88;6102811;23;20182;-89
2022/08/29 07:14:19;;;;;;;6.50;3.05;;;;;;;32.16;39.79;98911.13;6127487;23;20588;-89
2022/08/29 07:16:47;;;;;;;4.80;2.72;;;;;;;32.35;38.88;98910.09;6127792;23;20218;-90
2022/08/29 07:19:12;;;;;;;13.27;3.58;;;;;;;32.44;38.29;98919.63;6127373;23;20151;-89
2022/08/29 07:21:38;;;;;;;9.55;3.47;;;;;;;32.44;38.49;98913.34;6101828;23;20189;-89
2022/08/29 07:24:04;;;;;;;8.20;3.25;;;;;;;32.45;39.62;98915.00;6128007;23;20152;-88
2022/08/29 07:26:35;;;;;;;15.90;3.95;;;;;;;32.52;40.51;98900.31;6127266;23;20565;-88
2022/08/29 07:29:16;;;;;;;8.15;3.13;;;;;;;32.67;39.29;98902.66;6127295;23;20258;-90
2022/08/29 07:32:13;;;;;;;9.10;3.03;;;;;;;32.82;38.62;98905.81;6101958;23;20148;-90
2022/08/29 07:34:52;;;;;;;13.52;5.93;;;;;;;32.67;38.46;98908.09;6127223;23;20584;-90
2022/08/29 07:37:39;;;;;;;15.93;3.97;;;;;;;32.82;38.70;98913.97;6127161;23;20139;-89
2022/08/29 07:40:18;;;;;;;16.88;7.07;;;;;;;33.05;38.16;98903.22;6101659;23;20160;-91
2022/08/29 07:42:44;;;;;;;26.90;9.27;;;;;;;33.08;38.37;98899.22;6101386;23;20570;-89
2022/08/29 07:45:18;;;;;;;43.92;15.70;;;;;;;33.22;38.45;98904.25;6126909;23;20155;-89
2022/08/29 07:47:46;;;;;;;8.85;4.07;;;;;;;33.20;38.10;98908.25;6101407;23;20180;-90
2022/08/29 07:50:13;;;;;;;10.40;4.10;;;;;;;33.39;38.39;98905.22;6101543;23;20163;-89
2022/08/29 07:52:38;;;;;;;14.57;6.07;;;;;;;33.59;38.19;98907.69;6101593;23;20179;-89
2022/08/29 07:55:05;;;;;;;26.80;10.82;;;;;;;33.74;37.86;98907.22;6127032;23;20207;-89
2022/08/29 07:57:31;;;;;;;25.98;7.60;;;;;;;33.88;36.20;98905.94;6126856;23;20167;-89
2022/08/29 07:59:57;;;;;;;17.00;6.03;;;;;;;33.89;36.74;98897.53;6127386;23;20152;-89
2022/08/29 08:02:31;;;;;;;20.98;6.20;;;;;;;34.05;36.77;98896.00;6127049;23;20177;-89
2022/08/29 08:04:57;;;;;;;8.40;2.90;;;;;;;34.14;35.77;98899.22;6101896;23;20158;-89
2022/08/29 08:07:25;;;;;;;11.15;4.00;;;;;;;33.89;35.49;98897.53;6126853;23;20242;-90
2022/08/29 08:09:53;;;;;;;9.50;3.20;;;;;;;33.62;36.15;98893.59;6101391;23;20155;-90
2022/08/29 08:12:22;;;;;;;6.63;2.95;;;;;;;33.73;36.16;98891.97;6127279;23;20155;-89
2022/08/29 08:14:47;;;;;;;13.35;3.67;;;;;;;34.11;35.63;98894.25;6127137;23;20156;-88
2022/08/29 08:17:13;;;;;;;11.35;4.40;;;;;;;33.95;35.84;98893.03;6127126;23;20572;-90
2022/08/29 08:19:43;;;;;;;6.70;2.70;;;;;;;34.12;35.78;98899.44;6101436;23;20164;-89
2022/08/29 08:22:17;;;;;;;7.30;3.53;;;;;;;34.29;35.37;98894.94;6101245;23;20155;-91
2022/08/29 08:24:43;;;;;;;11.43;3.80;;;;;;;34.20;35.21;98890.91;6102273;23;20213;-91
2022/08/29 08:27:18;;;;;;;7.22;3.13;;;;;;;34.14;35.25;98891.91;6101604;23;20626;-90
2022/08/29 08:29:45;;;;;;;8.82;3.60;;;;;;;34.25;34.93;98891.03;6127300;23;20190;-90
2022/08/29 08:32:10;;;;;;;7.15;3.30;;;;;;;34.52;35.47;98877.75;6101142;23;20615;-90
2022/08/29 08:34:38;;;;;;;9.65;3.45;;;;;;;34.57;34.75;98889.59;6126698;23;20148;-89
2022/08/29 08:37:08;;;;;;;14.20;2.97;;;;;;;34.89;35.20;98886.41;6123312;23;20186;-88
2022/08/29 08:39:37;;;;;;;7.78;2.63;;;;;;;35.12;34.51;98886.34;6099483;23;20151;-89
2022/08/29 08:42:33;;;;;;;10.15;2.90;;;;;;;35.24;33.65;98878.94;6099508;23;20155;-90
2022/08/29 08:45:11;;;;;;;4.82;2.60;;;;;;;35.23;33.76;98877.28;6099790;23;20198;-88
2022/08/29 08:48:02;;;;;;;9.23;3.20;;;;;;;35.32;33.91;98881.28;6124483;23;20328;-89
2022/08/29 08:51:05;;;;;;;5.55;2.78;;;;;;;35.69;33.71;98887.91;6126910;23;20171;-89
2022/08/29 08:54:08;;;;;;;8.27;3.13;;;;;;;36.19;32.75;98884.34;6095254;23;20227;-89
2022/08/29 08:56:43;;;;;;;7.60;2.80;;;;;;;36.41;32.82;98881.63;6041157;23;20168;-88
2022/08/29 08:59:53;;;;;;;9.13;2.92;;;;;;;36.42;32.24;98875.09;6095953;23;20145;-90
2022/08/29 09:03:05;;;;;;;10.07;3.28;;;;;;;36.58;32.55;98869.63;6096264;23;20151;-89
2022/08/29 09:05:49;;;;;;;6.70;3.15;;;;;;;36.70;32.60;98867.56;6095276;23;20159;-88
2022/08/29 09:08:26;;;;;;;7.97;2.85;;;;;;;36.84;32.01;98874.28;6096862;23;20179;-89
2022/08/29 09:11:05;;;;;;;11.27;2.63;;;;;;;37.18;30.05;98863.19;6094563;23;20498;-90
2022/08/29 09:14:20;;;;;;;6.50;3.13;;;;;;;37.45;30.12;98869.47;6095215;23;20133;-88
2022/08/29 09:16:50;;;;;;;10.95;2.80;;;;;;;37.65;29.62;98864.19;6108534;23;20566;-88
2022/08/29 09:19:26;;;;;;;7.72;2.67;;;;;;;37.89;29.01;98860.03;6093863;23;20227;-88
2022/08/29 09:22:03;;;;;;;6.68;2.20;;;;;;;37.85;29.18;98858.84;6094493;23;20251;-89
2022/08/29 09:24:44;;;;;;;12.43;3.60;;;;;;;37.84;30.09;98859.94;6094541;23;20155;-88
2022/08/29 09:27:23;;;;;;;6.97;2.78;;;;;;;37.78;29.31;98858.25;6095379;23;20200;-88
2022/08/29 09:30:20;;;;;;;5.88;2.67;;;;;;;37.91;30.09;98852.38;6093240;23;20167;-89
2022/08/29 09:32:53;;;;;;;4.07;2.45;;;;;;;38.28;28.75;98854.22;6071232;23;20620;-90
2022/08/29 09:35:27;;;;;;;14.20;2.33;;;;;;;38.41;28.34;98851.03;6095650;23;20147;-89
2022/08/29 09:38:08;;;;;;;6.18;2.63;;;;;;;38.28;28.75;98856.94;6094459;23;20589;-89
2022/08/29 09:40:48;;;;;;;6.32;2.63;;;;;;;38.18;29.08;98852.25;6091272;23;20187;-90
2022/08/29 09:43:49;;;;;;;8.82;2.58;;;;;;;38.25;28.41;98857.47;6093455;23;20144;-89
2022/08/29 09:46:24;;;;;;;5.60;2.33;;;;;;;38.13;28.98;98854.97;6096560;23;20283;-91
2022/08/29 09:49:11;;;;;;;5.38;2.67;;;;;;;38.38;27.63;98846.91;6095769;23;20636;-88
2022/08/29 09:51:47;;;;;;;9.27;2.40;;;;;;;38.34;28.07;98844.97;6096193;23;20141;-88
2022/08/29 09:54:30;;;;;;;6.85;2.75;;;;;;;38.35;28.00;98843.84;6122928;23;20221;-88
2022/08/29 09:57:23;;;;;;;7.55;2.72;;;;;;;38.50;27.83;98841.19;6100946;23;20148;-88
2022/08/29 10:00:16;;;;;;;7.47;2.53;;;;;;;38.78;26.96;98840.78;6074636;23;20225;-88
2022/08/29 10:02:49;;;;;;;5.82;1.90;;;;;;;38.99;25.85;98830.69;6099084;23;20187;-88
2022/08/29 10:05:33;;;;;;;6.13;1.75;;;;;;;39.29;27.02;98831.56;6075629;23;20572;-88
2022/08/29 10:08:00;;;;;;;11.50;2.25;;;;;;;39.49;26.14;98829.91;6124299;23;20183;-89
2022/08/29 10:10:29;;;;;;;10.30;3.33;;;;;;;39.52;26.11;98823.88;6125238;23;20152;-88
2022/08/29 10:13:10;;;;;;;4.72;2.22;;;;;;;39.82;25.88;98824.69;6125351;23;20158;-88
2022/08/29 10:15:49;;;;;;;10.57;2.80;;;;;;;40.01;25.54;98824.94;6100280;23;20175;-88
2022/08/29 10:18:54;;;;;;;6.32;2.85;;;;;;;40.14;26.41;98824.38;6122504;23;20128;-89
2022/08/29 10:22:06;;;;;;;5.57;2.42;;;;;;;39.65;25.36;98817.88;6100631;23;20162;-88
2022/08/29 10:25:07;;;;;;;5.85;2.55;;;;;;;40.07;24.51;98814.78;6125487;23;20132;-89
2022/08/29 10:28:02;;;;;;;7.72;2.55;;;;;;;40.23;24.45;98814.44;6099349;23;20256;-90
2022/08/29 10:31:02;;;;;;;7.72;1.95;;;;;;;40.42;23.75;98804.47;6127071;23;20137;-89
2022/08/29 10:33:43;;;;;;;7.15;2.70;;;;;;;40.59;24.49;98800.56;6107605;23;20243;-89
2022/08/29 10:36:18;;;;;;;7.57;2.60;;;;;;;40.55;24.45;98794.00;6126471;23;20136;-90
2022/08/29 10:38:56;;;;;;;6.70;2.63;;;;;;;40.63;23.99;98798.88;6101247;23;20154;-89
2022/08/29 10:41:31;;;;;;;8.45;2.45;;;;;;;40.52;23.34;98789.88;6126064;23;20144;-88
2022/08/29 10:44:05;;;;;;;8.77;3.00;;;;;;;40.73;23.79;98787.84;6101610;23;20162;-88
2022/08/29 10:46:37;;;;;;;11.23;2.90;;;;;;;40.74;23.86;98775.75;6126924;23;20136;-88
2022/08/29 10:49:18;;;;;;;9.75;3.33;;;;;;;41.05;23.63;98777.19;6126438;23;20176;-88
2022/08/29 10:52:15;;;;;;;8.70;3.15;;;;;;;40.79;23.54;98779.28;6099278;23;20152;-88
2022/08/29 10:54:58;;;;;;;8.23;3.08;;;;;;;40.59;24.21;98778.59;6099551;23;20172;-88
2022/08/29 10:58:00;;;;;;;6.80;2.78;;;;;;;41.09;23.12;98768.06;6127319;23;20136;-88
2022/08/29 11:00:37;;;;;;;9.45;3.08;;;;;;;41.38;23.84;98770.88;6127446;23;20206;-88
2022/08/29 11:03:30;;;;;;;7.05;3.03;;;;;;;41.04;23.09;98759.06;6101629;23;20143;-87
2022/08/29 11:06:11;;;;;;;5.78;2.53;;;;;;;40.69;23.57;98757.38;6126339;23;20132;-88
2022/08/29 11:08:44;;;;;;;9.10;2.45;;;;;;;40.92;24.02;98755.84;6126551;23;20172;-88
2022/08/29 11:11:14;;;;;;;8.73;2.47;;;;;;;41.20;23.88;98755.06;6127094;23;20132;-89
2022/08/29 11:13:45;;;;;;;6.70;2.67;;;;;;;41.30;23.18;98752.28;6127192;23;20152;-87
2022/08/29 11:16:13;;;;;;;8.25;2.88;;;;;;;40.71;22.98;98744.16;6127174;23;20203;-88
2022/08/29 11:19:05;;;;;;;12.40;3.40;;;;;;;40.90;23.15;98747.91;6127120;23;20183;-89
2022/08/29 11:21:42;;;;;;;6.03;2.05;;;;;;;41.09;23.27;98743.31;6114105;23;20159;-88
2022/08/29 11:24:13;;;;;;;9.43;2.70;;;;;;;41.46;23.19;98733.69;6127678;23;20140;-89
2022/08/29 11:26:43;;;;;;;9.48;2.92;;;;;;;41.59;22.92;98731.03;6122523;23;20620;-88
2022/08/29 11:29:33;;;;;;;11.23;3.53;;;;;;;41.84;22.22;98729.16;6126311;23;20191;-87
2022/08/29 11:32:48;;;;;;;9.85;3.10;;;;;;;41.75;20.42;98736.44;6100480;23;20619;-87
2022/08/29 11:35:31;;;;;;;8.50;2.35;;;;;;;41.53;21.16;98721.22;6009490;23;20238;-87
2022/08/29 11:38:37;;;;;;;8.50;2.63;;;;;;;41.21;21.65;98718.19;6009263;23;20150;-89
2022/08/29 11:41:21;;;;;;;10.80;2.70;;;;;;;40.83;23.18;98719.84;5962640;23;20177;-88
2022/08/29 11:43:52;;;;;;;6.00;2.08;;;;;;;41.30;22.03;98716.50;6009513;23;20181;-89
2022/08/29 11:46:37;;;;;;;6.80;2.20;;;;;;;41.71;22.11;98714.13;6008837;23;20245;-88
2022/08/29 11:49:40;;;;;;;10.70;2.42;;;;;;;42.01;21.44;98701.97;5980545;23;20654;-88
2022/08/29 11:52:11;;;;;;;7.85;2.30;;;;;;;42.34;20.99;98701.00;6043289;23;20174;-88
2022/08/29 11:54:38;;;;;;;6.25;2.35;;;;;;;42.51;20.17;98704.03;6118727;23;20156;-89
2022/08/29 11:57:04;;;;;;;7.22;2.38;;;;;;;42.47;19.48;98689.22;6125809;23;20151;-88